East Texas Regional Airport
KGGG : rendu visible

Aérodrome :











RETROUVEZ-NOUS SUR...

 
LOGIN :

S'inscrire | Disclaimer

   EN    FR    IT 

 









Légende :    VFR   VFR Marginal   IFR   IFR Intensif   IFR Très Intensif
Visi : 
Plafond : 
>= 8 km
>= 3000ft
5 à 8 km
1000 à 3000 ft
1500m à 5 km
500 à 1000 ft
800 à 1500m
200 à 500 ft
< 800m
< 200 ft
Symboles :   Orages  Brouillard  Fortes neiges  Fortes précipitations  Vent > 20 kt






- Altitude de l'aérodrome : 365 ft
- Code IATA : GGG


KGGG - East Texas Regional

DERNIER METAR :
  • 061153Z AUTO 13004KT 10SM BKN095 23/21 A3002 RMK AO2 SLP159 70023 T02280211 10239 20228 53006

METARs EXPIRÉS :
  • 061053Z AUTO 11005KT 10SM BKN090 23/21 A3000 RMK AO2 SLP154 T02330211
  • 060953Z AUTO 11005KT 10SM CLR 23/22 A3000 RMK AO2 SLP152 T02330217

TAF KGGG
Valide du 06 à 12h jusqu'au 07 à 12h UTC


061121Z 0612/0712 13005KT P6SM SCT008 SCT050 SCT100
TEMPO 0612/0614 BKN008
FM061500 15007KT P6SM SCT050 SCT080
FM070000 15005KT P6SM SCT050 SCT250
FIR KZFW / Amérique du Nord



MET'MAP, la Météo Aéronautique d'un coup d'oeil ! - Copyright ORBIFLY Décembre 2007 - Disclaimer

ORBIFLY MET'MAP TEAM :

Programmation & Développement : Alexandra Zaïnal
Sur une idée originale de : Baudouin d'Aumeries
Assistance à la programmation : Marc-Olivier Méhu
Soutien technique & logistique : Manuel Goepfert

Contact : metmap@orbifly.com




SOURCES & CREDITS :

   NOAA       Earth
Advisory